Time;durP1;ratioP1;P1;durP2;ratioP2;P2;SDS_P1;SDS_P2;PMS_P1;PMS_P2;Temp;Humidity;BMP_temperature;BMP_pressure;BME280_temperature;BME280_humidity;BME280_pressure;Samples;Min_cycle;Max_cycle;Signal;HPM_P1;HPM_P2
2023/09/03 00:01:52;;;;;;;6.37;5.30;;;17.10;99.90;;;16.76;77.23;101788.72;5099785;28;20185;-73
2023/09/03 00:04:24;;;;;;;6.80;6.10;;;16.90;99.90;;;16.77;77.13;101790.44;5099910;28;20225;-73
2023/09/03 00:06:56;;;;;;;5.60;5.20;;;16.90;99.90;;;16.76;77.49;101778.75;5099420;28;20185;-73
2023/09/03 00:09:27;;;;;;;6.70;6.00;;;17.00;99.90;;;16.67;76.73;101785.22;5096757;28;20240;-73
2023/09/03 00:11:59;;;;;;;6.60;5.93;;;16.90;99.90;;;16.71;77.20;101783.88;5096517;28;20200;-74
2023/09/03 00:14:32;;;;;;;6.23;5.73;;;16.90;99.90;;;16.68;77.99;101776.94;5096096;28;20706;-73
2023/09/03 00:17:06;;;;;;;8.83;5.70;;;16.90;99.90;;;16.59;76.86;101778.00;5096311;28;20605;-73
2023/09/03 00:19:38;;;;;;;6.23;5.63;;;16.80;99.90;;;16.59;77.73;101777.13;5096644;28;20279;-72
2023/09/03 00:22:10;;;;;;;5.03;4.63;;;16.70;99.90;;;16.65;77.66;101776.44;5096938;28;20604;-72
2023/09/03 00:24:42;;;;;;;7.33;5.60;;;16.80;99.90;;;16.54;77.34;101788.44;5096631;28;20308;-73
2023/09/03 00:27:14;;;;;;;6.33;5.13;;;16.70;99.90;;;16.59;76.71;101787.97;5096180;28;20193;-73
2023/09/03 00:29:46;;;;;;;6.67;5.90;;;16.80;99.90;;;16.60;77.54;101785.09;5096093;28;20304;-73
2023/09/03 00:32:19;;;;;;;5.87;5.27;;;16.80;99.90;;;16.58;76.46;101786.25;5096086;28;20189;-73
2023/09/03 00:34:51;;;;;;;6.97;5.20;;;16.80;99.90;;;16.53;77.16;101781.38;5096013;28;20315;-73
2023/09/03 00:37:23;;;;;;;5.90;5.30;;;16.70;99.90;;;16.36;77.37;101781.56;5095777;28;20575;-73
2023/09/03 00:39:55;;;;;;;6.07;5.47;;;16.60;99.90;;;16.34;76.61;101794.41;5096237;28;20185;-73
2023/09/03 00:42:27;;;;;;;6.93;5.77;;;16.60;99.90;;;16.26;77.55;101798.00;5095535;28;20185;-74
2023/09/03 00:44:59;;;;;;;5.47;4.97;;;16.40;99.90;;;16.30;77.61;101809.31;5095792;28;20256;-73
2023/09/03 00:47:32;;;;;;;6.33;4.70;;;16.50;99.90;;;16.30;76.75;101812.81;5095824;28;20276;-73
2023/09/03 00:50:04;;;;;;;6.23;5.20;;;16.50;99.90;;;16.22;77.80;101819.09;5095679;28;20326;-73
2023/09/03 00:52:36;;;;;;;5.83;5.23;;;16.40;99.90;;;16.26;77.19;101810.66;5095732;28;20296;-73
2023/09/03 00:55:10;;;;;;;5.40;4.73;;;16.40;99.90;;;16.27;77.06;101809.66;5095249;28;20236;-73
2023/09/03 00:57:42;;;;;;;5.70;5.13;;;16.50;99.90;;;16.08;78.33;101810.84;5095308;28;20193;-73
2023/09/03 01:00:14;;;;;;;6.27;5.40;;;16.20;99.90;;;16.10;77.20;101833.09;5095585;28;20207;-73
2023/09/03 01:02:50;;;;;;;5.33;4.83;;;16.20;99.90;;;16.11;77.29;101837.50;5095543;28;20208;-73
2023/09/03 01:05:21;;;;;;;6.27;5.67;;;16.30;99.90;;;16.13;76.86;101833.63;5095425;28;20229;-73
2023/09/03 01:07:54;;;;;;;5.80;5.20;;;16.30;99.90;;;16.15;77.00;101839.72;5095459;28;20193;-73
2023/09/03 01:10:31;;;;;;;6.33;5.40;;;16.40;99.90;;;16.05;77.76;101838.19;5094943;28;20693;-74
2023/09/03 01:13:12;;;;;;;5.80;5.30;;;16.30;99.90;;;16.10;77.31;101836.66;5095352;28;20196;-73
2023/09/03 01:15:50;;;;;;;5.87;5.37;;;16.30;99.90;;;16.09;77.63;101829.59;5095228;28;20227;-73
2023/09/03 01:18:27;;;;;;;6.53;5.87;;;16.30;99.90;;;16.06;78.39;101818.28;5095248;28;20192;-73
2023/09/03 01:21:38;;;;;;;6.00;5.37;;;16.30;99.90;;;15.98;78.61;101821.81;5094003;28;20224;-73
2023/09/03 01:24:36;;;;;;;6.23;5.63;;;16.10;99.90;;;15.82;77.20;101826.38;5094692;28;20663;-73
2023/09/03 01:27:24;;;;;;;6.07;5.47;;;16.10;99.90;;;15.80;77.65;101820.28;5095052;28;20193;-73
2023/09/03 01:29:59;;;;;;;5.90;5.40;;;16.00;99.90;;;15.86;77.41;101825.84;5095159;28;20295;-73
2023/09/03 01:32:32;;;;;;;6.37;5.63;;;16.10;99.90;;;15.83;78.16;101822.66;5094989;28;20227;-73
2023/09/03 01:35:07;;;;;;;6.53;5.77;;;16.10;99.90;;;15.60;77.79;101831.41;5094535;28;20797;-73
2023/09/03 01:37:39;;;;;;;6.97;6.30;;;15.80;99.90;;;15.54;78.62;101839.34;5094857;28;20216;-73
2023/09/03 01:40:13;;;;;;;8.80;6.20;;;15.70;99.90;;;15.59;78.61;101843.22;5094741;28;20189;-73
2023/09/03 01:42:45;;;;;;;8.27;6.20;;;15.80;99.90;;;15.62;78.99;101842.88;5094717;28;20220;-73
2023/09/03 01:45:19;;;;;;;7.33;5.40;;;15.90;99.90;;;15.56;77.85;101848.94;5094622;28;20260;-73
2023/09/03 01:48:01;;;;;;;7.83;5.80;;;15.90;99.90;;;15.42;79.55;101849.56;5094619;28;20264;-73
2023/09/03 01:50:52;;;;;;;7.77;6.00;;;15.70;99.90;;;15.53;79.66;101845.72;5094491;28;20209;-73
2023/09/03 01:53:33;;;;;;;6.37;5.70;;;15.70;99.90;;;15.57;78.87;101839.84;5094496;28;20204;-73
2023/09/03 01:56:13;;;;;;;6.87;5.53;;;15.90;99.90;;;15.58;79.10;101838.00;5094188;28;20189;-73
2023/09/03 01:58:52;;;;;;;6.50;5.60;;;15.90;99.90;;;15.57;78.75;101839.84;5094161;28;20188;-73
2023/09/03 02:01:32;;;;;;;6.23;5.60;;;15.80;99.90;;;15.51;79.33;101839.66;5094367;28;20198;-73
2023/09/03 02:04:04;;;;;;;8.77;5.60;;;15.70;99.90;;;15.58;79.10;101836.13;5094248;28;20266;-73
2023/09/03 02:06:36;;;;;;;6.30;5.70;;;16.00;99.90;;;15.57;79.10;101834.44;5094209;28;20280;-73
2023/09/03 02:09:09;;;;;;;6.77;5.97;;;15.80;99.90;;;15.32;79.92;101843.47;5094266;28;20189;-73
2023/09/03 02:11:41;;;;;;;6.23;5.63;;;15.60;99.90;;;15.33;79.79;101834.38;5094160;28;20231;-73
2023/09/03 02:14:12;;;;;;;6.93;6.30;;;15.60;99.90;;;15.32;79.75;101823.72;5093802;28;20670;-73
2023/09/03 02:16:46;;;;;;;7.17;6.00;;;15.50;99.90;;;15.31;79.91;101809.38;5094138;28;20669;-73
2023/09/03 02:19:18;;;;;;;6.43;5.33;;;15.60;99.90;;;15.24;80.14;101811.03;5093769;28;20565;-73
2023/09/03 02:21:50;;;;;;;8.33;5.73;;;15.50;99.90;;;15.29;79.56;101803.31;5094084;28;20220;-73
2023/09/03 02:24:22;;;;;;;6.63;5.93;;;15.50;99.90;;;15.18;80.40;101806.31;5093967;28;20315;-73
2023/09/03 02:26:54;;;;;;;6.80;6.20;;;15.50;99.90;;;15.05;81.12;101805.94;5093687;28;20558;-73
2023/09/03 02:29:27;;;;;;;6.90;6.20;;;15.30;99.90;;;15.08;81.04;101813.69;5093680;28;20650;-73
2023/09/03 02:32:00;;;;;;;7.70;6.53;;;15.30;99.90;;;15.07;80.92;101814.69;5093408;28;20296;-73
2023/09/03 02:34:32;;;;;;;7.70;7.00;;;15.30;99.90;;;15.03;81.42;101818.75;5093816;28;20225;-73
2023/09/03 02:37:04;;;;;;;7.63;6.80;;;15.30;99.90;;;15.08;80.70;101813.69;5093866;28;20193;-73
2023/09/03 02:39:36;;;;;;;8.33;6.57;;;15.40;99.90;;;14.99;80.27;101817.38;5093812;28;20235;-73
2023/09/03 02:42:07;;;;;;;7.87;6.50;;;15.20;99.90;;;15.02;81.05;101817.06;5093760;28;20189;-73
2023/09/03 02:44:39;;;;;;;7.63;6.83;;;15.20;99.90;;;15.02;80.96;101817.06;5093382;28;20881;-73
2023/09/03 02:47:12;;;;;;;7.50;6.80;;;15.30;99.90;;;14.97;80.99;101819.38;5093404;28;20635;-73
2023/09/03 02:49:44;;;;;;;7.90;6.93;;;15.20;99.90;;;15.01;81.08;101820.75;5093681;28;20189;-73
2023/09/03 02:52:16;;;;;;;6.87;6.27;;;15.20;99.90;;;15.03;80.34;101813.38;5093830;28;20299;-73
2023/09/03 02:54:48;;;;;;;8.90;6.90;;;15.30;99.90;;;15.04;79.88;101806.94;5093203;28;20320;-73
2023/09/03 02:57:20;;;;;;;9.87;6.87;;;15.30;99.90;;;14.91;81.12;101801.16;5093618;28;20224;-73
2023/09/03 02:59:52;;;;;;;7.63;6.83;;;15.20;99.90;;;14.77;80.62;101796.38;5093513;28;20284;-73
2023/09/03 03:02:25;;;;;;;8.30;7.23;;;15.00;99.90;;;14.66;82.31;101790.28;5093586;28;20283;-73
2023/09/03 03:04:58;;;;;;;8.70;7.40;;;14.90;99.90;;;14.66;81.65;101795.66;5093494;28;20320;-73
2023/09/03 03:07:29;;;;;;;8.43;7.53;;;14.80;99.90;;;14.72;81.03;101794.19;5093808;28;20283;-73
2023/09/03 03:10:01;;;;;;;9.53;6.90;;;15.10;99.90;;;14.78;80.68;101792.69;5093538;28;20272;-73
2023/09/03 03:12:33;;;;;;;8.53;7.73;;;15.10;99.90;;;14.67;81.22;101801.91;5093702;28;20195;-73
2023/09/03 03:15:06;;;;;;;9.07;7.97;;;14.90;99.90;;;14.50;81.34;101821.69;5093383;28;20318;-73
2023/09/03 03:17:39;;;;;;;8.97;8.07;;;14.70;99.90;;;14.49;81.47;101830.78;5093377;28;20185;-73
2023/09/03 03:20:13;;;;;;;10.60;8.10;;;14.70;99.90;;;14.59;81.96;101842.28;5093458;28;20200;-73
2023/09/03 03:22:46;;;;;;;9.47;8.23;;;14.80;99.90;;;14.75;81.55;101846.94;5093377;28;20280;-73
2023/09/03 03:25:18;;;;;;;13.57;8.40;;;15.10;99.90;;;14.80;81.73;101856.22;5093246;28;20259;-73
2023/09/03 03:27:50;;;;;;;9.27;8.33;;;15.20;99.90;;;14.81;82.29;101854.38;5093274;28;20276;-73
2023/09/03 03:30:23;;;;;;;9.33;8.50;;;15.10;99.90;;;14.86;82.57;101854.75;5093178;28;20235;-73
2023/09/03 03:32:57;;;;;;;10.30;8.87;;;15.20;99.90;;;14.71;82.59;101851.81;5093279;28;20281;-73
2023/09/03 03:35:29;;;;;;;9.00;7.83;;;15.00;99.90;;;14.73;82.66;101859.75;5092877;28;20266;-72
2023/09/03 03:38:01;;;;;;;10.33;8.70;;;15.00;99.90;;;14.74;83.15;101881.13;5093250;28;20271;-72
2023/09/03 03:40:33;;;;;;;10.77;8.83;;;15.10;99.90;;;14.74;82.73;101873.03;5093234;28;20195;-72
2023/09/03 03:43:05;;;;;;;10.00;9.00;;;15.10;99.90;;;14.69;83.46;101867.31;5093122;28;20207;-72
2023/09/03 03:45:39;;;;;;;10.00;9.00;;;15.20;99.90;;;14.61;83.09;101868.09;5096262;28;20742;-72
2023/09/03 03:48:13;;;;;;;10.27;9.30;;;15.00;99.90;;;14.54;83.63;101867.03;5097019;28;20197;-72
2023/09/03 03:50:44;;;;;;;10.37;9.47;;;14.80;99.90;;;14.53;83.52;101869.88;5097075;28;20220;-72
2023/09/03 03:53:16;;;;;;;10.07;9.07;;;14.80;99.90;;;14.52;82.59;101877.09;5097094;28;20231;-73
2023/09/03 03:55:48;;;;;;;10.27;9.27;;;14.90;99.90;;;14.53;83.08;101876.13;5096761;28;20215;-73
2023/09/03 03:58:20;;;;;;;10.43;9.43;;;14.80;99.90;;;14.36;82.57;101882.41;5097412;28;20561;-73
2023/09/03 04:00:52;;;;;;;8.87;7.93;;;14.70;99.90;;;14.41;82.87;101880.09;5096947;28;20195;-73
2023/09/03 04:03:28;;;;;;;10.30;9.30;;;14.70;99.90;;;14.50;81.43;101884.53;5096714;28;20261;-73
2023/09/03 04:06:00;;;;;;;9.87;8.97;;;14.80;99.90;;;14.41;82.78;101877.41;5096626;28;20242;-73
2023/09/03 04:08:35;;;;;;;10.77;8.80;;;14.80;99.90;;;14.37;82.10;101889.47;5096601;28;20193;-73
2023/09/03 04:11:09;;;;;;;9.63;8.63;;;14.70;99.90;;;14.49;81.90;101887.34;5096390;28;20252;-73
2023/09/03 04:13:43;;;;;;;10.57;9.47;;;14.80;99.90;;;14.49;81.80;101890.06;5096412;28;20307;-73
2023/09/03 04:16:17;;;;;;;11.30;10.13;;;14.90;99.90;;;14.47;82.86;101886.69;5096482;28;20185;-73
2023/09/03 04:18:51;;;;;;;10.60;8.83;;;14.80;99.90;;;14.44;82.31;101897.78;5096310;28;20629;-73
2023/09/03 04:21:23;;;;;;;9.67;8.77;;;14.90;99.90;;;14.46;81.44;101890.38;5096380;28;20189;-73
2023/09/03 04:23:55;;;;;;;12.17;8.67;;;14.80;99.90;;;14.45;81.55;101888.69;5096291;28;20228;-73
2023/09/03 04:26:27;;;;;;;10.27;9.27;;;14.80;99.90;;;14.40;82.50;101891.84;5097118;28;20189;-73
2023/09/03 04:28:59;;;;;;;10.13;9.00;;;14.70;99.90;;;14.31;82.26;101900.00;5096136;28;20232;-73
2023/09/03 04:31:31;;;;;;;10.03;9.10;;;14.60;99.90;;;14.28;82.63;101906.53;5096131;28;20261;-73
2023/09/03 04:34:05;;;;;;;14.43;10.10;;;14.60;99.90;;;14.28;82.51;101903.03;5096069;28;20312;-73
2023/09/03 04:36:37;;;;;;;12.27;9.90;;;14.60;99.90;;;14.33;83.11;101896.16;5096043;28;20190;-73
2023/09/03 04:39:11;;;;;;;10.70;9.70;;;14.70;99.90;;;14.34;82.87;101892.50;5095993;28;20284;-73
2023/09/03 04:41:43;;;;;;;10.53;9.53;;;14.70;99.90;;;14.14;82.64;101904.41;5095996;28;20276;-73
2023/09/03 04:44:16;;;;;;;12.20;10.23;;;14.50;99.90;;;14.09;82.83;101909.41;5095875;28;20231;-73
2023/09/03 04:46:48;;;;;;;12.00;10.33;;;14.40;99.90;;;14.13;83.56;101913.50;5096101;28;20188;-73
2023/09/03 04:49:21;;;;;;;11.00;9.80;;;14.40;99.90;;;14.21;83.58;101911.69;5095807;28;20283;-73
2023/09/03 04:51:52;;;;;;;12.73;10.13;;;14.50;99.90;;;14.14;82.65;101904.41;5095723;28;20304;-73
2023/09/03 04:54:24;;;;;;;11.63;10.43;;;14.50;99.90;;;14.07;83.20;101916.81;5095037;28;20896;-73
2023/09/03 04:56:57;;;;;;;10.77;9.77;;;14.30;99.90;;;14.13;82.83;101937.72;5095675;28;20224;-73
2023/09/03 04:59:30;;;;;;;11.17;10.17;;;14.50;99.90;;;14.19;83.10;101931.72;5095306;28;20631;-73
2023/09/03 05:02:02;;;;;;;11.07;10.00;;;14.60;99.90;;;14.16;83.09;101934.72;5095546;28;20185;-73
2023/09/03 05:04:35;;;;;;;11.13;10.13;;;14.50;99.90;;;14.12;83.57;101931.50;5095455;28;20229;-73
2023/09/03 05:07:07;;;;;;;12.57;10.93;;;14.50;99.90;;;14.12;83.44;101941.41;5095438;28;20275;-73
2023/09/03 05:09:39;;;;;;;13.10;11.17;;;14.50;99.90;;;14.20;83.58;101941.50;5095364;28;20234;-73
2023/09/03 05:12:11;;;;;;;10.33;9.33;;;14.60;99.90;;;14.28;83.61;101940.72;5095257;28;20300;-73
2023/09/03 05:14:43;;;;;;;11.87;10.77;;;14.70;99.90;;;14.22;83.70;101950.25;5095266;28;20282;-73
2023/09/03 05:17:15;;;;;;;11.27;10.17;;;14.60;99.90;;;14.07;84.35;101955.34;5095226;28;20648;-73
2023/09/03 05:19:48;;;;;;;12.83;11.30;;;14.40;99.90;;;14.04;84.55;101961.03;5095340;28;20272;-73
2023/09/03 05:22:20;;;;;;;12.17;10.97;;;14.40;99.90;;;14.01;85.31;101965.88;5095118;28;20189;-73
2023/09/03 05:24:52;;;;;;;12.77;11.37;;;14.40;99.90;;;14.04;85.00;101981.75;5095582;28;20225;-73
2023/09/03 05:27:24;;;;;;;15.80;13.13;;;14.40;99.90;;;14.09;85.78;101995.59;5094707;28;20722;-73
2023/09/03 05:29:56;;;;;;;13.33;11.53;;;14.40;99.90;;;14.12;85.83;102011.44;5095053;28;20189;-73
2023/09/03 05:32:28;;;;;;;12.70;11.50;;;14.50;99.90;;;14.10;86.38;102013.44;5094854;28;20244;-73
2023/09/03 05:35:01;;;;;;;15.90;13.23;;;14.50;99.90;;;14.13;87.08;102013.13;5094507;28;20767;-73
2023/09/03 05:37:33;;;;;;;14.67;11.83;;;14.50;99.90;;;14.14;87.08;102020.22;5094960;28;20239;-73
2023/09/03 05:40:05;;;;;;;13.50;12.13;;;14.50;99.90;;;14.13;87.15;102018.53;5094828;28;20197;-73
2023/09/03 05:42:37;;;;;;;15.00;13.50;;;14.60;99.90;;;14.12;87.47;102019.50;5094392;28;20295;-73
2023/09/03 05:45:12;;;;;;;14.43;12.50;;;14.60;99.90;;;14.11;88.08;102031.28;5094596;28;20225;-73
2023/09/03 05:47:43;;;;;;;13.60;12.30;;;14.50;99.90;;;14.12;88.13;102044.59;5094886;28;20200;-73
2023/09/03 05:50:16;;;;;;;16.17;13.70;;;14.50;99.90;;;14.08;89.11;102029.75;5094329;28;20651;-72
2023/09/03 05:52:48;;;;;;;15.93;14.07;;;14.40;99.90;;;14.08;88.71;102023.50;5094473;28;20262;-73
2023/09/03 05:55:20;;;;;;;14.07;12.10;;;14.50;99.90;;;14.05;88.92;102027.34;5094004;28;20232;-73
2023/09/03 05:57:55;;;;;;;15.63;13.37;;;14.50;99.90;;;14.08;89.35;102023.50;5094452;28;20666;-73
2023/09/03 06:00:27;;;;;;;15.10;13.20;;;14.50;99.90;;;14.05;90.51;102016.59;5094430;28;20276;-73
2023/09/03 06:02:59;;;;;;;18.13;13.43;;;14.50;99.90;;;14.09;89.74;102015.28;5094300;28;20654;-73
2023/09/03 06:05:32;;;;;;;16.47;14.33;;;14.50;99.90;;;14.03;91.19;102001.59;5094355;28;20243;-73
2023/09/03 06:08:04;;;;;;;17.57;13.90;;;14.40;99.90;;;14.08;90.58;102015.44;5093677;28;20197;-73
2023/09/03 06:10:36;;;;;;;15.13;12.70;;;14.50;99.90;;;14.12;90.60;102022.22;5094267;28;20595;-73
2023/09/03 06:13:08;;;;;;;15.17;12.93;;;14.60;99.90;;;14.12;90.42;102027.59;5094162;28;20326;-73
2023/09/03 06:15:40;;;;;;;16.33;14.20;;;14.50;99.90;;;14.13;90.43;102038.22;5094178;28;20267;-73
2023/09/03 06:18:12;;;;;;;18.37;14.40;;;14.60;99.90;;;14.10;90.84;102043.06;5094148;28;20193;-73
2023/09/03 06:20:46;;;;;;;17.47;13.60;;;14.60;99.90;;;14.12;90.99;102049.13;5093784;28;20544;-73
2023/09/03 06:23:18;;;;;;;16.07;14.33;;;14.70;99.90;;;14.10;91.02;102052.00;5093984;28;20272;-73
2023/09/03 06:25:53;;;;;;;15.67;13.60;;;14.50;99.90;;;14.10;91.31;102056.53;5094264;28;20189;-73
2023/09/03 06:28:26;;;;;;;16.97;14.07;;;14.50;99.90;;;14.10;91.36;102045.75;5093970;28;20193;-73
2023/09/03 06:30:59;;;;;;;19.40;15.43;;;14.50;99.90;;;14.07;91.11;102048.75;5093606;28;20229;-73
2023/09/03 06:33:31;;;;;;;16.70;14.87;;;14.60;99.90;;;14.08;91.47;102047.75;5093443;28;20660;-73
2023/09/03 06:36:04;;;;;;;18.80;14.83;;;14.50;99.90;;;14.11;91.18;102039.34;5093596;28;20238;-73
2023/09/03 06:38:38;;;;;;;18.17;16.17;;;14.50;99.90;;;14.08;91.94;102062.06;5093554;28;20231;-73
2023/09/03 06:41:10;;;;;;;19.73;17.53;;;14.60;99.90;;;14.11;91.96;102053.66;5093814;28;20281;-73
2023/09/03 06:43:43;;;;;;;19.47;16.57;;;14.60;99.90;;;14.15;92.35;102063.16;5093342;28;20278;-73
2023/09/03 06:46:15;;;;;;;18.97;14.90;;;14.60;99.90;;;14.19;92.03;102053.78;5094007;28;20279;-73
2023/09/03 06:48:47;;;;;;;19.00;16.50;;;14.70;99.90;;;14.20;92.75;102052.78;5093969;28;20242;-73
2023/09/03 06:51:24;;;;;;;21.37;15.80;;;14.80;99.90;;;14.22;92.56;102047.22;5093931;28;20192;-72
2023/09/03 06:53:56;;;;;;;18.47;16.47;;;14.70;99.90;;;14.26;92.71;102050.47;5093069;28;20264;-72
2023/09/03 06:56:30;;;;;;;14.63;13.07;;;14.70;99.90;;;14.28;92.45;102049.31;5093609;28;20270;-72
2023/09/03 06:59:02;;;;;;;17.30;15.47;;;14.70;99.90;;;14.33;92.35;102043.47;5093539;28;20284;-73
2023/09/03 07:01:34;;;;;;;15.67;13.83;;;14.90;99.90;;;14.37;92.40;102043.06;5093534;28;20199;-73
2023/09/03 07:04:06;;;;;;;19.27;14.43;;;14.90;99.90;;;14.42;92.60;102042.56;5093485;28;20312;-73
2023/09/03 07:06:39;;;;;;;16.73;13.93;;;14.90;99.90;;;14.45;92.59;102048.50;5093527;28;20275;-73
2023/09/03 07:09:11;;;;;;;17.93;12.97;;;15.00;99.90;;;14.50;92.95;102054.28;5093541;28;20280;-73
2023/09/03 07:11:43;;;;;;;15.03;11.97;;;15.00;99.90;;;14.53;91.98;102053.97;5093173;28;20651;-73
2023/09/03 07:14:15;;;;;;;12.60;11.37;;;15.10;99.90;;;14.58;92.02;102054.38;5093331;28;20281;-73
2023/09/03 07:16:47;;;;;;;12.90;10.77;;;15.10;99.90;;;14.61;91.42;102053.22;5093201;28;20214;-73
2023/09/03 07:19:20;;;;;;;14.40;10.20;;;15.20;99.90;;;14.64;90.78;102061.84;5096906;28;20204;-73
2023/09/03 07:21:53;;;;;;;10.80;9.70;;;15.20;99.90;;;14.70;90.90;102066.59;5097491;28;20266;-73
2023/09/03 07:24:25;;;;;;;10.00;9.00;;;15.30;99.90;;;14.77;90.89;102071.38;5097414;28;20242;-73
2023/09/03 07:26:57;;;;;;;12.87;10.00;;;15.40;99.90;;;14.82;90.36;102079.84;5097635;28;20188;-73
2023/09/03 07:29:29;;;;;;;11.30;9.40;;;15.40;99.90;;;14.86;90.55;102079.41;5097349;28;20196;-73
2023/09/03 07:32:01;;;;;;;12.70;9.17;;;15.60;99.90;;;14.92;90.65;102078.75;5097309;28;20224;-73
2023/09/03 07:34:33;;;;;;;10.60;8.90;;;15.70;99.90;;;14.98;90.03;102079.97;5097096;28;20228;-73
2023/09/03 07:37:07;;;;;;;9.37;7.80;;;15.60;99.90;;;15.07;90.71;102084.41;5097223;28;20254;-73
2023/09/03 07:39:40;;;;;;;8.67;7.10;;;15.70;99.90;;;15.13;90.86;102083.81;5096834;28;20532;-73
2023/09/03 07:42:12;;;;;;;9.40;6.77;;;15.70;99.90;;;15.22;89.29;102086.41;5097140;28;20189;-73
2023/09/03 07:44:44;;;;;;;9.80;7.70;;;15.80;99.90;;;15.30;89.14;102090.16;5096678;28;20593;-74
2023/09/03 07:47:16;;;;;;;10.13;7.60;;;15.90;99.90;;;15.37;88.59;102097.47;5097031;28;20585;-74
2023/09/03 07:49:48;;;;;;;10.03;7.27;;;16.00;99.90;;;15.45;88.93;102080.47;5096999;28;20269;-73
2023/09/03 07:52:21;;;;;;;7.70;4.77;;;16.10;99.90;;;15.50;85.78;102083.59;5096582;28;20192;-74
2023/09/03 07:54:53;;;;;;;9.67;5.57;;;16.10;99.90;;;15.55;86.93;102090.19;5096408;28;20337;-73
2023/09/03 07:57:27;;;;;;;6.90;4.40;;;16.20;99.90;;;15.65;85.70;102095.50;5096885;28;20283;-75
2023/09/03 07:59:58;;;;;;;6.60;4.60;;;16.30;99.90;;;15.69;87.28;102095.00;5096747;28;20221;-74
2023/09/03 08:02:32;;;;;;;6.70;4.93;;;16.40;99.90;;;15.77;86.57;102101.44;5096524;28;20193;-73
2023/09/03 08:05:04;;;;;;;5.33;4.10;;;16.40;99.90;;;15.84;86.82;102102.50;5096663;28;20228;-74
2023/09/03 08:07:37;;;;;;;5.60;4.00;;;16.50;99.90;;;15.85;83.82;102096.09;5096650;28;20193;-74
2023/09/03 08:10:12;;;;;;;3.77;3.17;;;16.40;99.90;;;15.92;83.49;102097.13;5096431;28;20284;-74
2023/09/03 08:12:43;;;;;;;5.53;3.20;;;16.50;99.90;;;15.96;81.69;102093.13;5096534;28;20618;-74
2023/09/03 08:15:17;;;;;;;4.70;3.13;;;16.60;99.90;;;16.03;83.71;102094.13;5096437;28;20298;-74
2023/09/03 08:18:08;;;;;;;5.63;3.90;;;16.70;99.90;;;16.09;82.72;102093.50;5096252;28;20255;-74
2023/09/03 08:20:41;;;;;;;4.93;3.97;;;16.60;99.90;;;16.12;83.34;102095.88;5096423;28;20272;-74
2023/09/03 08:23:17;;;;;;;5.33;3.20;;;16.70;99.90;;;16.18;83.75;102097.91;5096841;28;20197;-74
2023/09/03 08:25:50;;;;;;;4.77;3.23;;;16.80;99.90;;;16.17;80.44;102101.59;5096329;28;20295;-74
2023/09/03 08:28:23;;;;;;;4.50;3.10;;;16.50;99.90;;;16.21;81.59;102102.97;5096264;28;20280;-74
2023/09/03 08:30:55;;;;;;;5.37;3.20;;;16.80;99.90;;;16.26;82.10;102095.25;5095514;28;20651;-74
2023/09/03 08:33:27;;;;;;;3.97;3.07;;;16.80;99.90;;;16.31;81.78;102098.28;5096042;28;20209;-74
2023/09/03 08:36:00;;;;;;;4.33;2.50;;;16.90;99.90;;;16.34;77.74;102105.19;5096104;28;20199;-73
2023/09/03 08:38:33;;;;;;;2.80;2.20;;;16.90;99.90;;;16.36;79.28;102117.56;5096075;28;20189;-74
2023/09/03 08:41:05;;;;;;;3.60;2.37;;;17.00;99.90;;;16.38;76.88;102110.13;5096031;28;20221;-74
2023/09/03 08:43:38;;;;;;;4.00;2.47;;;17.00;99.90;;;16.45;78.59;102123.81;5095889;28;20308;-74
2023/09/03 08:46:19;;;;;;;3.80;2.80;;;17.00;99.90;;;16.47;79.96;102125.34;5095600;28;20226;-74
2023/09/03 08:48:54;;;;;;;5.70;3.03;;;17.00;99.90;;;16.55;78.53;102128.13;5095426;28;20642;-74
2023/09/03 08:51:27;;;;;;;4.03;2.60;;;17.10;99.90;;;16.62;79.20;102120.19;5095814;28;20196;-74
2023/09/03 08:54:05;;;;;;;6.17;2.53;;;17.20;99.90;;;16.68;78.96;102117.66;5095423;28;20229;-74
2023/09/03 08:56:39;;;;;;;4.23;2.33;;;17.30;99.90;;;16.75;78.78;102109.72;5095712;28;20184;-74
2023/09/03 08:59:12;;;;;;;4.97;2.60;;;17.30;99.90;;;16.87;77.08;102115.66;5095777;28;20243;-74
2023/09/03 09:01:45;;;;;;;3.43;2.53;;;17.40;99.90;;;16.97;77.60;102108.22;5095366;28;20238;-74
2023/09/03 09:04:20;;;;;;;2.90;2.40;;;17.60;99.90;;;17.02;76.28;102108.56;5095716;28;20228;-74
2023/09/03 09:06:53;;;;;;;2.93;2.10;;;17.60;99.90;;;17.04;75.04;102120.06;5095484;28;20279;-74
2023/09/03 09:09:29;;;;;;;4.40;2.43;;;17.60;99.90;;;17.05;74.75;102127.16;5095469;28;20193;-74
2023/09/03 09:12:12;;;;;;;3.83;2.20;;;17.60;99.90;;;17.09;75.67;102118.53;5095402;28;20211;-74
2023/09/03 09:14:53;;;;;;;4.90;1.90;;;17.60;99.90;;;17.10;70.42;102116.66;5095197;28;20263;-73
2023/09/03 09:17:25;;;;;;;3.90;2.60;;;17.60;99.90;;;17.18;73.83;102125.66;5095345;28;20273;-74
2023/09/03 09:20:00;;;;;;;4.30;2.40;;;17.80;99.90;;;17.27;73.93;102128.31;5094958;28;20650;-74
2023/09/03 09:22:38;;;;;;;3.03;2.23;;;17.80;99.90;;;17.35;72.49;102125.63;5095106;28;20685;-73
2023/09/03 09:25:18;;;;;;;5.40;2.27;;;17.90;99.90;;;17.44;71.04;102125.44;5095066;28;20248;-73
2023/09/03 09:27:50;;;;;;;3.70;2.40;;;18.00;99.90;;;17.54;71.42;102128.81;5095409;28;20254;-74
2023/09/03 09:30:26;;;;;;;4.17;3.17;;;18.10;99.90;;;17.59;70.88;102131.88;5095158;28;20279;-74
2023/09/03 09:33:10;;;;;;;4.37;2.20;;;18.10;99.90;;;17.71;70.61;102126.94;5094845;28;20185;-75
2023/09/03 09:35:43;;;;;;;3.13;1.83;;;18.30;99.90;;;17.77;68.09;102128.97;5094882;28;20216;-75
2023/09/03 09:38:18;;;;;;;3.37;1.87;;;18.40;99.90;;;17.79;64.98;102134.19;5094934;28;20224;-75
2023/09/03 09:40:51;;;;;;;4.17;2.07;;;18.30;99.80;;;17.86;66.39;102127.06;5094619;28;20193;-75
2023/09/03 09:43:24;;;;;;;2.00;1.90;;;18.40;99.90;;;17.93;66.00;102128.06;5094163;28;20192;-75
2023/09/03 09:45:56;;;;;;;3.27;1.90;;;18.50;99.90;;;17.97;64.42;102124.84;5095006;28;20185;-75
2023/09/03 09:48:28;;;;;;;2.57;1.60;;;18.50;99.30;;;18.05;68.13;102123.94;5094418;28;20191;-75
2023/09/03 09:51:01;;;;;;;2.30;1.90;;;18.60;99.90;;;18.11;68.37;102134.09;5094704;28;20193;-76
2023/09/03 09:53:32;;;;;;;4.63;1.80;;;18.60;99.90;;;18.21;66.06;102134.72;5094471;28;20224;-74
2023/09/03 09:56:09;;;;;;;4.07;1.83;;;18.70;99.90;;;18.29;65.48;102126.53;5094507;28;20268;-75
2023/09/03 09:58:42;;;;;;;2.13;1.70;;;18.80;99.90;;;18.34;63.97;102123.31;5094530;28;20307;-74
2023/09/03 10:01:14;;;;;;;2.70;1.70;;;18.80;98.60;;;18.42;59.57;102116.00;5094527;28;20189;-74
2023/09/03 10:03:48;;;;;;;2.20;1.50;;;18.90;96.60;;;18.48;60.86;102115.28;5094363;28;20225;-74
2023/09/03 10:06:23;;;;;;;2.10;1.80;;;19.00;96.60;;;18.56;62.75;102117.13;5094361;28;20310;-74
2023/09/03 10:08:56;;;;;;;4.27;1.90;;;19.10;98.00;;;18.66;62.70;102129.41;5094306;28;20285;-74
2023/09/03 10:11:29;;;;;;;2.17;1.67;;;19.10;98.00;;;18.74;64.07;102115.78;5094748;28;20220;-74
2023/09/03 10:14:01;;;;;;;2.30;1.60;;;19.30;98.80;;;18.85;57.31;102116.41;5094162;28;20225;-74
2023/09/03 10:16:35;;;;;;;4.60;2.33;;;19.30;95.00;;;18.91;59.22;102118.38;5094405;28;20197;-74
2023/09/03 10:19:11;;;;;;;3.03;1.70;;;19.40;95.90;;;19.04;62.85;102115.94;5093879;28;20200;-74
2023/09/03 10:21:45;;;;;;;2.23;1.60;;;19.50;97.90;;;19.13;63.32;102114.81;5094372;28;20238;-74
2023/09/03 10:24:31;;;;;;;2.57;1.80;;;19.60;98.00;;;19.22;58.67;102114.56;5093967;28;20220;-74
2023/09/03 10:27:12;;;;;;;1.70;1.50;;;19.70;95.60;;;19.30;60.20;102120.94;5094080;28;20283;-74
2023/09/03 10:29:48;;;;;;;5.30;1.90;;;19.80;96.50;;;19.39;59.86;102123.41;5093969;28;20189;-74
2023/09/03 10:32:24;;;;;;;2.37;1.70;;;19.90;96.30;;;19.40;62.68;102129.66;5093973;28;20189;-73
2023/09/03 10:34:56;;;;;;;12.77;10.87;;;19.60;97.50;;;19.48;62.65;102132.34;5093743;28;20228;-64